createdAt,value
2022-11-02T00:00:37.044Z,78.63
2022-11-02T00:01:37.266Z,78.42
2022-11-02T00:02:37.453Z,78.02
2022-11-02T00:03:37.575Z,77.51
2022-11-02T00:04:37.747Z,77.61
2022-11-02T00:05:37.916Z,77.81
2022-11-02T00:06:38.078Z,77.81
2022-11-02T00:07:38.256Z,77.51
2022-11-02T00:08:38.426Z,77.81
2022-11-02T00:09:38.596Z,77.71
2022-11-02T00:10:38.757Z,77.61
2022-11-02T00:11:38.926Z,77.20
2022-11-02T00:12:39.096Z,76.90
2022-11-02T00:13:39.258Z,77.00
2022-11-02T00:14:39.447Z,77.00
2022-11-02T00:15:39.606Z,77.10
2022-11-02T00:16:39.796Z,77.00
2022-11-02T00:17:39.977Z,77.30
2022-11-02T00:18:40.149Z,77.40
2022-11-02T00:19:40.306Z,77.51
2022-11-02T00:20:40.477Z,77.61
2022-11-02T00:21:40.656Z,77.40
2022-11-02T00:22:40.866Z,77.40
2022-11-02T00:23:41.259Z,77.64
2022-11-02T00:24:41.199Z,77.64
2022-11-02T00:25:41.357Z,77.30
2022-11-02T00:26:41.518Z,76.93
2022-11-02T00:27:41.686Z,77.24
2022-11-02T00:28:41.858Z,77.14
2022-11-02T00:29:42.005Z,77.44
2022-11-02T00:30:42.197Z,77.85
2022-11-02T00:31:42.385Z,77.64
2022-11-02T00:32:42.547Z,77.14
2022-11-02T00:33:42.696Z,77.64
2022-11-02T00:34:42.886Z,78.05
2022-11-02T00:35:43.046Z,78.36
2022-11-02T00:36:43.236Z,78.26
2022-11-02T00:37:43.409Z,77.75
2022-11-02T00:38:43.565Z,77.44
2022-11-02T00:39:43.726Z,77.44
2022-11-02T00:40:43.887Z,77.55
2022-11-02T00:41:44.046Z,77.24
2022-11-02T00:42:44.262Z,77.14
2022-11-02T00:43:44.408Z,77.03
2022-11-02T00:44:44.606Z,76.73
2022-11-02T00:45:44.766Z,76.73
2022-11-02T00:46:44.926Z,76.53
2022-11-02T00:47:45.096Z,76.53
2022-11-02T00:48:45.265Z,76.83
2022-11-02T00:49:45.425Z,77.98
2022-11-02T00:50:45.584Z,78.19
2022-11-02T00:51:45.776Z,77.68
2022-11-02T00:52:45.952Z,77.89
2022-11-02T00:53:46.127Z,78.39
2022-11-02T00:54:46.284Z,77.89
2022-11-02T00:55:46.436Z,77.48
2022-11-02T00:56:46.595Z,77.27
2022-11-02T00:57:46.806Z,77.68
2022-11-02T00:58:46.965Z,77.68
2022-11-02T00:59:47.126Z,77.37
2022-11-02T01:00:47.284Z,78.09
2022-11-02T01:01:47.603Z,78.30
2022-11-02T01:02:47.830Z,77.89
2022-11-02T01:03:47.806Z,78.19
2022-11-02T01:04:47.966Z,78.50
2022-11-02T01:05:48.125Z,78.30
2022-11-02T01:06:48.284Z,77.78
2022-11-02T01:07:48.492Z,77.58
2022-11-02T01:08:48.651Z,77.89
2022-11-02T01:09:48.812Z,78.09
2022-11-02T01:10:48.968Z,77.78
2022-11-02T01:11:49.165Z,78.09
2022-11-02T01:12:49.345Z,78.19
2022-11-02T01:13:49.509Z,77.98
2022-11-02T01:14:49.665Z,77.48
2022-11-02T01:15:49.824Z,77.37
2022-11-02T01:16:49.986Z,77.68
2022-11-02T01:17:50.164Z,78.09
2022-11-02T01:18:50.315Z,77.68
2022-11-02T01:19:50.512Z,77.37
2022-11-02T01:20:50.664Z,77.17
2022-11-02T01:21:50.865Z,77.07
2022-11-02T01:22:51.034Z,76.97
2022-11-02T01:23:51.196Z,76.97
2022-11-02T01:24:51.353Z,76.87
2022-11-02T01:25:51.513Z,76.87
2022-11-02T01:26:51.698Z,77.48
2022-11-02T01:27:51.904Z,77.17
2022-11-02T01:28:52.064Z,77.17
2022-11-02T01:29:52.225Z,77.41
2022-11-02T01:30:52.385Z,77.31
2022-11-02T01:31:52.574Z,77.00
2022-11-02T01:32:52.743Z,76.90
2022-11-02T01:33:52.905Z,77.72
2022-11-02T01:34:53.063Z,77.62
2022-11-02T01:35:53.223Z,77.51
2022-11-02T01:36:53.383Z,77.72
2022-11-02T01:37:53.586Z,77.51
2022-11-02T01:38:53.746Z,77.11
2022-11-02T01:39:53.903Z,77.31
2022-11-02T01:40:54.063Z,77.31
2022-11-02T01:41:54.222Z,77.31
2022-11-02T01:42:54.393Z,77.41
2022-11-02T01:43:54.549Z,77.51
2022-11-02T01:44:54.704Z,77.11
2022-11-02T01:45:54.895Z,76.90
2022-11-02T01:46:55.053Z,76.59
2022-11-02T01:47:55.262Z,76.50
2022-11-02T01:48:55.413Z,76.50
2022-11-02T01:49:55.612Z,76.29
2022-11-02T01:50:55.764Z,76.29
2022-11-02T01:51:55.961Z,76.19
2022-11-02T01:52:56.124Z,76.19
2022-11-02T01:53:56.285Z,76.29
2022-11-02T01:54:56.444Z,76.39
2022-11-02T01:55:56.642Z,76.09
2022-11-02T01:56:56.843Z,75.88
2022-11-02T01:57:56.982Z,75.88
2022-11-02T01:58:57.143Z,75.88
2022-11-02T01:59:57.333Z,75.68
2022-11-02T02:00:57.492Z,75.68
2022-11-02T02:01:57.752Z,75.68
2022-11-02T02:02:57.890Z,75.78
2022-11-02T02:03:57.999Z,75.68
2022-11-02T02:04:58.143Z,75.57
2022-11-02T02:05:58.304Z,75.78
2022-11-02T02:06:58.462Z,75.68
2022-11-02T02:07:58.663Z,75.88
2022-11-02T02:08:58.825Z,75.88
2022-11-02T02:09:59.022Z,75.78
2022-11-02T02:10:59.182Z,75.78
2022-11-02T02:11:59.392Z,75.68
2022-11-02T02:12:59.543Z,75.68
2022-11-02T02:13:59.748Z,75.71
2022-11-02T02:14:59.894Z,75.57
2022-11-02T02:16:00.090Z,75.48
2022-11-02T02:17:00.271Z,75.51
2022-11-02T02:18:00.687Z,75.37
2022-11-02T02:19:00.592Z,75.48
2022-11-02T02:20:00.751Z,75.37
2022-11-02T02:21:00.911Z,75.37
2022-11-02T02:22:01.113Z,75.41
2022-11-02T02:23:01.271Z,75.20
2022-11-02T02:24:01.435Z,75.41
2022-11-02T02:25:01.592Z,75.31
2022-11-02T02:26:01.751Z,75.41
2022-11-02T02:27:01.929Z,75.31
2022-11-02T02:28:02.419Z,75.10
2022-11-02T02:29:02.252Z,75.31
2022-11-02T02:30:02.433Z,75.20
2022-11-02T02:31:02.575Z,75.31
2022-11-02T02:32:02.782Z,75.31
2022-11-02T02:33:02.943Z,75.20
2022-11-02T02:34:03.101Z,75.31
2022-11-02T02:35:03.260Z,75.31
2022-11-02T02:36:03.431Z,75.31
2022-11-02T02:37:03.605Z,75.31
2022-11-02T02:38:04.140Z,75.31
2022-11-02T02:39:03.940Z,75.20
2022-11-02T02:40:04.105Z,75.10
2022-11-02T02:41:04.262Z,74.90
2022-11-02T02:42:04.460Z,74.90
2022-11-02T02:43:04.620Z,74.90
2022-11-02T02:44:04.810Z,75.00
2022-11-02T02:45:04.972Z,75.00
2022-11-02T02:46:05.163Z,75.00
2022-11-02T02:47:05.332Z,74.96
2022-11-02T02:48:05.781Z,75.00
2022-11-02T02:49:05.642Z,74.90
2022-11-02T02:50:05.843Z,75.10
2022-11-02T02:51:05.990Z,75.00
2022-11-02T02:52:06.206Z,74.96
2022-11-02T02:53:06.362Z,74.90
2022-11-02T02:54:06.521Z,74.86
2022-11-02T02:55:06.682Z,74.90
2022-11-02T02:56:06.840Z,75.00
2022-11-02T02:57:07.021Z,74.86
2022-11-02T02:58:07.596Z,74.86
2022-11-02T02:59:07.348Z,74.76
2022-11-02T03:00:07.541Z,74.86
2022-11-02T03:01:07.729Z,74.76
2022-11-02T03:02:08.004Z,74.45
2022-11-02T03:03:08.039Z,74.45
2022-11-02T03:04:08.200Z,74.35
2022-11-02T03:05:08.359Z,74.45
2022-11-02T03:06:08.520Z,74.25
2022-11-02T03:07:08.699Z,74.05
2022-11-02T03:08:08.876Z,74.25
2022-11-02T03:09:09.009Z,74.35
2022-11-02T03:10:09.200Z,74.35
2022-11-02T03:11:09.394Z,74.25
2022-11-02T03:12:09.607Z,74.35
2022-11-02T03:13:09.760Z,74.35
2022-11-02T03:14:09.952Z,74.05
2022-11-02T03:15:10.121Z,74.15
2022-11-02T03:16:10.286Z,74.35
2022-11-02T03:17:10.449Z,74.25
2022-11-02T03:18:10.618Z,73.84
2022-11-02T03:19:10.769Z,73.64
2022-11-02T03:20:10.972Z,73.84
2022-11-02T03:21:11.119Z,73.94
2022-11-02T03:22:11.320Z,73.94
2022-11-02T03:23:11.478Z,73.84
2022-11-02T03:24:11.670Z,73.74
2022-11-02T03:25:11.829Z,73.84
2022-11-02T03:26:12.018Z,73.64
2022-11-02T03:27:12.189Z,73.64
2022-11-02T03:28:12.358Z,73.54
2022-11-02T03:29:12.509Z,73.47
2022-11-02T03:30:12.709Z,73.33
2022-11-02T03:31:12.859Z,73.57
2022-11-02T03:32:13.069Z,73.47
2022-11-02T03:33:13.228Z,73.54
2022-11-02T03:34:13.389Z,73.67
2022-11-02T03:35:13.548Z,73.57
2022-11-02T03:36:13.746Z,73.57
2022-11-02T03:37:13.921Z,73.47
2022-11-02T03:38:14.080Z,73.47
2022-11-02T03:39:14.238Z,73.67
2022-11-02T03:40:14.407Z,73.57
2022-11-02T03:41:14.558Z,73.47
2022-11-02T03:42:14.748Z,73.36
2022-11-02T03:43:14.878Z,73.57
2022-11-02T03:44:15.038Z,73.57
2022-11-02T03:45:15.199Z,73.57
2022-11-02T03:46:15.388Z,73.47
2022-11-02T03:47:15.558Z,73.47
2022-11-02T03:48:15.720Z,73.57
2022-11-02T03:49:15.881Z,73.57
2022-11-02T03:50:16.076Z,73.47
2022-11-02T03:51:16.229Z,73.36
2022-11-02T03:52:16.409Z,73.47
2022-11-02T03:53:16.568Z,73.36
2022-11-02T03:54:16.729Z,73.36
2022-11-02T03:55:16.879Z,73.36
2022-11-02T03:56:17.077Z,73.16
2022-11-02T03:57:17.258Z,73.36
2022-11-02T03:58:17.408Z,73.47
2022-11-02T03:59:17.572Z,73.36
2022-11-02T04:00:17.727Z,73.36
2022-11-02T04:01:17.993Z,73.36
2022-11-02T04:02:18.207Z,73.36
2022-11-02T04:03:18.239Z,73.47
2022-11-02T04:04:18.436Z,73.47
2022-11-02T04:05:18.587Z,73.36
2022-11-02T04:06:18.747Z,73.36
2022-11-02T04:07:18.944Z,73.36
2022-11-02T04:08:19.074Z,73.47
2022-11-02T04:09:19.227Z,73.47
2022-11-02T04:10:19.417Z,73.27
2022-11-02T04:11:19.577Z,73.27
2022-11-02T04:12:19.752Z,73.27
2022-11-02T04:13:19.907Z,73.27
2022-11-02T04:14:20.099Z,73.27
2022-11-02T04:15:20.257Z,73.57
2022-11-02T04:16:25.072Z,73.47
2022-11-02T04:17:21.691Z,73.47
2022-11-02T04:18:20.767Z,73.67
2022-11-02T04:19:20.927Z,73.36
2022-11-02T04:20:21.088Z,73.36
2022-11-02T04:21:21.237Z,73.27
2022-11-02T04:22:21.449Z,73.16
2022-11-02T04:23:21.606Z,73.16
2022-11-02T04:24:21.767Z,73.06
2022-11-02T04:25:21.924Z,72.96
2022-11-02T04:26:22.078Z,73.06
2022-11-02T04:27:22.258Z,73.06
2022-11-02T04:28:22.416Z,73.06
2022-11-02T04:29:22.575Z,72.96
2022-11-02T04:30:22.771Z,72.96
2022-11-02T04:31:22.926Z,73.16
2022-11-02T04:32:23.116Z,73.06
2022-11-02T04:33:23.266Z,72.86
2022-11-02T04:34:23.476Z,72.86
2022-11-02T04:35:23.636Z,72.96
2022-11-02T04:36:23.795Z,72.96
2022-11-02T04:37:24.013Z,72.96
2022-11-02T04:38:24.128Z,72.96
2022-11-02T04:39:24.285Z,73.06
2022-11-02T04:40:24.446Z,73.06
2022-11-02T04:41:24.607Z,72.86
2022-11-02T04:42:24.777Z,72.86
2022-11-02T04:43:24.936Z,72.86
2022-11-02T04:44:27.966Z,72.86
2022-11-02T04:45:25.404Z,72.86
2022-11-02T04:46:25.474Z,72.75
2022-11-02T04:47:25.636Z,72.79
2022-11-02T04:48:25.805Z,72.89
2022-11-02T04:49:25.955Z,72.99
2022-11-02T04:50:26.125Z,73.10
2022-11-02T04:51:26.286Z,72.99
2022-11-02T04:52:26.456Z,72.99
2022-11-02T04:53:26.615Z,73.19
2022-11-02T04:54:26.815Z,73.40
2022-11-02T04:55:26.972Z,73.30
2022-11-02T04:56:27.165Z,73.19
2022-11-02T04:57:27.344Z,73.30
2022-11-02T04:58:27.504Z,73.30
2022-11-02T04:59:27.655Z,73.30
2022-11-02T05:00:27.852Z,73.19
2022-11-02T05:01:28.135Z,72.99
2022-11-02T05:02:28.303Z,73.10
2022-11-02T05:03:28.335Z,72.99
2022-11-02T05:04:28.496Z,73.10
2022-11-02T05:05:28.663Z,73.30
2022-11-02T05:06:28.818Z,73.50
2022-11-02T05:07:29.006Z,73.40
2022-11-02T05:08:29.162Z,73.10
2022-11-02T05:09:29.356Z,73.19
2022-11-02T05:10:29.524Z,73.10
2022-11-02T05:11:29.684Z,73.10
2022-11-02T05:12:29.855Z,72.99
2022-11-02T05:13:30.024Z,73.06
2022-11-02T05:14:30.174Z,72.86
2022-11-02T05:15:30.347Z,72.86
2022-11-02T05:16:30.502Z,72.86
2022-11-02T05:17:30.704Z,72.86
2022-11-02T05:18:30.868Z,72.86
2022-11-02T05:19:31.057Z,72.75
2022-11-02T05:20:31.225Z,72.86
2022-11-02T05:21:31.404Z,72.75
2022-11-02T05:22:31.574Z,73.06
2022-11-02T05:23:31.740Z,72.96
2022-11-02T05:24:31.895Z,73.06
2022-11-02T05:25:32.055Z,73.16
2022-11-02T05:26:32.214Z,72.96
2022-11-02T05:27:32.395Z,73.36
2022-11-02T05:28:32.563Z,73.27
2022-11-02T05:29:32.718Z,72.96
2022-11-02T05:30:32.874Z,72.75
2022-11-02T05:31:33.050Z,72.65
2022-11-02T05:32:33.207Z,72.75
2022-11-02T05:33:33.363Z,72.65
2022-11-02T05:34:33.525Z,72.75
2022-11-02T05:35:33.686Z,73.06
2022-11-02T05:36:33.922Z,72.96
2022-11-02T05:37:34.041Z,72.75
2022-11-02T05:38:34.252Z,72.96
2022-11-02T05:39:34.372Z,72.75
2022-11-02T05:40:34.533Z,72.55
2022-11-02T05:41:34.705Z,72.65
2022-11-02T05:42:34.881Z,72.55
2022-11-02T05:43:35.044Z,72.65
2022-11-02T05:44:35.213Z,72.45
2022-11-02T05:45:35.428Z,72.75
2022-11-02T05:46:35.582Z,72.55
2022-11-02T05:47:35.763Z,72.55
2022-11-02T05:48:35.950Z,72.34
2022-11-02T05:49:36.133Z,72.65
2022-11-02T05:50:36.322Z,72.55
2022-11-02T05:51:36.484Z,72.14
2022-11-02T05:52:36.634Z,72.45
2022-11-02T05:53:36.815Z,72.55
2022-11-02T05:54:36.991Z,72.55
2022-11-02T05:55:37.184Z,72.55
2022-11-02T05:56:37.343Z,72.55
2022-11-02T05:57:37.503Z,72.96
2022-11-02T05:58:37.736Z,72.96
2022-11-02T05:59:37.862Z,72.34
2022-11-02T06:00:38.020Z,72.45
2022-11-02T06:01:38.254Z,72.34
2022-11-02T06:02:38.351Z,72.55
2022-11-02T06:03:38.548Z,72.55
2022-11-02T06:04:38.699Z,72.65
2022-11-02T06:05:38.925Z,72.65
2022-11-02T06:06:39.071Z,72.65
2022-11-02T06:07:39.242Z,72.24
2022-11-02T06:08:39.392Z,72.45
2022-11-02T06:09:39.582Z,72.75
2022-11-02T06:10:39.739Z,72.75
2022-11-02T06:11:39.943Z,72.65
2022-11-02T06:12:40.081Z,72.52
2022-11-02T06:13:40.260Z,72.41
2022-11-02T06:14:40.411Z,72.00
2022-11-02T06:15:40.601Z,72.11
2022-11-02T06:16:40.768Z,72.31
2022-11-02T06:17:40.945Z,72.21
2022-11-02T06:18:41.132Z,72.11
2022-11-02T06:19:41.292Z,72.00
2022-11-02T06:20:41.509Z,72.21
2022-11-02T06:21:44.421Z,71.80
2022-11-02T06:22:42.799Z,71.50
2022-11-02T06:23:41.962Z,71.70
2022-11-02T06:24:42.150Z,71.29
2022-11-02T06:25:42.302Z,71.60
2022-11-02T06:26:42.471Z,71.09
2022-11-02T06:27:45.865Z,71.67
2022-11-02T06:28:42.792Z,71.67
2022-11-02T06:29:42.981Z,71.46
2022-11-02T06:30:43.182Z,71.56
2022-11-02T06:31:43.391Z,71.46
2022-11-02T06:32:43.532Z,70.54
2022-11-02T06:33:43.712Z,71.15
2022-11-02T06:34:43.884Z,71.77
2022-11-02T06:35:44.082Z,71.36
2022-11-02T06:36:44.240Z,71.53
2022-11-02T06:37:44.399Z,71.43
2022-11-02T06:38:44.562Z,71.02
2022-11-02T06:39:44.701Z,70.00
2022-11-02T06:40:44.904Z,70.61
2022-11-02T06:41:45.079Z,71.02
2022-11-02T06:42:56.482Z,70.92
2022-11-02T06:43:46.432Z,69.70
2022-11-02T06:44:45.601Z,70.41
2022-11-02T06:45:45.760Z,70.68
2022-11-02T06:46:45.948Z,70.17
2022-11-02T06:47:46.100Z,70.17
2022-11-02T06:48:46.259Z,70.38
2022-11-02T06:49:46.419Z,70.38
2022-11-02T06:50:46.590Z,70.28
2022-11-02T06:51:46.771Z,70.48
2022-11-02T06:52:46.930Z,70.07
2022-11-02T06:53:47.094Z,70.58
2022-11-02T06:54:47.260Z,70.58
2022-11-02T06:55:47.421Z,70.58
2022-11-02T06:56:47.611Z,70.07
2022-11-02T06:57:47.807Z,70.17
2022-11-02T06:58:47.959Z,70.07
2022-11-02T06:59:53.704Z,70.07
2022-11-02T07:00:49.358Z,69.87
2022-11-02T07:01:48.606Z,69.56
2022-11-02T07:02:48.659Z,70.04
2022-11-02T07:03:48.856Z,69.93
2022-11-02T07:04:49.030Z,70.04
2022-11-02T07:05:49.220Z,69.84
2022-11-02T07:06:49.408Z,69.73
2022-11-02T07:07:49.570Z,70.04
2022-11-02T07:08:49.752Z,69.84
2022-11-02T07:09:49.938Z,69.84
2022-11-02T07:10:50.120Z,69.63
2022-11-02T07:11:50.351Z,69.93
2022-11-02T07:12:50.472Z,70.01
2022-11-02T07:13:50.654Z,69.80
2022-11-02T07:14:50.832Z,69.80
2022-11-02T07:15:51.011Z,69.19
2022-11-02T07:16:51.213Z,69.46
2022-11-02T07:17:51.361Z,69.26
2022-11-02T07:18:51.544Z,69.13
2022-11-02T07:19:51.721Z,67.91
2022-11-02T07:20:51.908Z,68.69
2022-11-02T07:21:52.100Z,68.99
2022-11-02T07:22:52.250Z,68.76
2022-11-02T07:23:52.442Z,67.91
2022-11-02T07:24:52.620Z,67.81
2022-11-02T07:25:52.799Z,67.38
2022-11-02T07:26:53.020Z,66.36
2022-11-02T07:27:53.159Z,66.23
2022-11-02T07:28:56.802Z,66.70
2022-11-02T07:29:54.548Z,65.99
2022-11-02T07:30:53.699Z,65.86
2022-11-02T07:31:53.902Z,64.92
2022-11-02T07:32:54.009Z,65.32
2022-11-02T07:33:54.200Z,64.18
2022-11-02T07:34:54.378Z,63.78
2022-11-02T07:35:54.519Z,63.24
2022-11-02T07:36:54.716Z,62.53
2022-11-02T07:37:54.870Z,63.41
2022-11-02T07:38:55.039Z,62.40
2022-11-02T07:39:55.229Z,62.40
2022-11-02T07:40:55.433Z,62.30
2022-11-02T07:41:55.684Z,62.67
2022-11-02T07:42:55.759Z,62.27
2022-11-02T07:43:55.939Z,62.77
2022-11-02T07:44:56.119Z,61.73
2022-11-02T07:45:56.300Z,63.05
2022-11-02T07:46:56.498Z,62.74
2022-11-02T07:47:56.649Z,62.24
2022-11-02T07:48:56.830Z,61.94
2022-11-02T07:49:57.020Z,62.04
2022-11-02T07:50:57.172Z,62.34
2022-11-02T07:51:57.369Z,62.34
2022-11-02T07:52:57.540Z,61.80
2022-11-02T07:53:57.730Z,61.71
2022-11-02T07:54:57.910Z,60.77
2022-11-02T07:55:58.114Z,60.53
2022-11-02T07:56:58.268Z,60.61
2022-11-02T07:57:58.471Z,60.10
2022-11-02T07:58:58.578Z,59.47
2022-11-02T07:59:58.764Z,60.38
2022-11-02T08:01:00.032Z,60.17
2022-11-02T08:01:59.189Z,59.37
2022-11-02T08:02:59.437Z,59.37
2022-11-02T08:03:59.490Z,59.57
2022-11-02T08:04:59.642Z,58.76
2022-11-02T08:05:59.827Z,60.08
2022-11-02T08:07:00.021Z,59.67
2022-11-02T08:08:00.171Z,60.00
2022-11-02T08:09:00.357Z,60.51
2022-11-02T08:10:00.537Z,59.40
2022-11-02T08:11:00.690Z,60.81
2022-11-02T08:12:00.882Z,60.61
2022-11-02T08:13:01.200Z,60.13
2022-11-02T08:14:01.192Z,59.83
2022-11-02T08:15:07.191Z,60.74
2022-11-02T08:16:02.561Z,60.64
2022-11-02T08:17:01.760Z,60.24
2022-11-02T08:18:02.216Z,59.73
2022-11-02T08:19:02.083Z,60.44
2022-11-02T08:20:02.260Z,60.74
2022-11-02T08:21:02.440Z,60.24
2022-11-02T08:22:02.631Z,59.83
2022-11-02T08:23:02.794Z,60.84
2022-11-02T08:24:02.977Z,60.64
2022-11-02T08:25:03.257Z,60.94
2022-11-02T08:26:03.317Z,60.13
2022-11-02T08:27:03.500Z,60.94
2022-11-02T08:28:04.154Z,60.21
2022-11-02T08:29:03.829Z,60.81
2022-11-02T08:30:04.011Z,60.10
2022-11-02T08:31:04.171Z,60.33
2022-11-02T08:32:04.370Z,59.90
2022-11-02T08:33:04.550Z,60.51
2022-11-02T08:34:04.739Z,60.00
2022-11-02T08:35:04.883Z,60.21
2022-11-02T08:36:05.064Z,59.00
2022-11-02T08:37:05.280Z,59.60
2022-11-02T08:38:05.772Z,59.60
2022-11-02T08:39:05.602Z,59.70
2022-11-02T08:40:05.781Z,59.90
2022-11-02T08:41:05.952Z,60.00
2022-11-02T08:42:06.151Z,59.40
2022-11-02T08:43:06.330Z,59.60
2022-11-02T08:44:06.584Z,59.83
2022-11-02T08:45:06.671Z,60.33
2022-11-02T08:46:14.960Z,60.13
2022-11-02T08:47:09.513Z,59.40
2022-11-02T08:48:07.558Z,58.84
2022-11-02T08:49:07.371Z,55.88
2022-11-02T08:50:07.551Z,53.95
2022-11-02T08:51:07.736Z,51.67
2022-11-02T08:52:07.922Z,49.27
2022-11-02T08:53:08.073Z,48.47
2022-11-02T08:54:08.251Z,47.83
2022-11-02T08:55:08.412Z,47.72
2022-11-02T08:56:08.596Z,46.91
2022-11-02T08:57:08.798Z,46.26
2022-11-02T08:58:08.954Z,45.22
2022-11-02T08:59:09.134Z,44.76
2022-11-02T09:00:09.316Z,43.02
2022-11-02T09:01:09.557Z,41.38
2022-11-02T09:02:09.812Z,41.24
2022-11-02T09:03:09.961Z,39.71
2022-11-02T09:04:10.045Z,38.90
2022-11-02T09:05:10.223Z,38.37
2022-11-02T09:06:10.426Z,38.33
2022-11-02T09:07:10.553Z,36.91
2022-11-02T09:08:10.800Z,37.19
2022-11-02T09:09:10.934Z,36.76
2022-11-02T09:10:11.105Z,35.07
2022-11-02T09:11:11.299Z,35.15
2022-11-02T09:12:11.474Z,34.64
2022-11-02T09:13:11.657Z,34.63
2022-11-02T09:14:11.900Z,34.41
2022-11-02T09:15:12.017Z,34.39
2022-11-02T09:16:12.205Z,33.79
2022-11-02T09:17:12.357Z,32.71
2022-11-02T09:18:12.547Z,32.33
2022-11-02T09:19:12.703Z,32.34
2022-11-02T09:20:12.888Z,32.57
2022-11-02T09:21:13.075Z,33.89
2022-11-02T09:22:13.217Z,35.31
2022-11-02T09:23:13.436Z,35.88
2022-11-02T09:24:13.594Z,37.89
2022-11-02T09:25:13.777Z,37.93
2022-11-02T09:26:13.977Z,38.26
2022-11-02T09:27:14.126Z,39.47
2022-11-02T09:28:14.297Z,40.20
2022-11-02T09:29:14.605Z,40.22
2022-11-02T09:30:14.678Z,40.94
2022-11-02T09:31:14.882Z,41.25
2022-11-02T09:32:15.020Z,41.87
2022-11-02T09:33:15.211Z,42.59
2022-11-02T09:34:15.392Z,43.11
2022-11-02T09:35:15.559Z,43.73
2022-11-02T09:36:15.767Z,43.95
2022-11-02T09:37:15.920Z,44.87
2022-11-02T09:38:16.108Z,45.29
2022-11-02T09:39:16.286Z,45.90
2022-11-02T09:40:16.458Z,46.03
2022-11-02T09:41:16.659Z,46.55
2022-11-02T09:42:16.808Z,46.37
2022-11-02T09:43:16.989Z,47.27
2022-11-02T09:44:17.169Z,48.39
2022-11-02T09:45:17.360Z,47.79
2022-11-02T09:46:17.558Z,48.11
2022-11-02T09:48:02.846Z,48.34
2022-11-02T09:48:23.346Z,48.74
2022-11-02T09:49:19.029Z,47.86
2022-11-02T09:50:18.266Z,48.38
2022-11-02T09:51:18.430Z,49.19
2022-11-02T09:52:18.568Z,49.31
2022-11-02T09:53:18.749Z,49.31
2022-11-02T09:54:18.938Z,49.71
2022-11-02T09:55:19.160Z,50.34
2022-11-02T09:56:19.302Z,50.34
2022-11-02T09:57:19.500Z,50.74
2022-11-02T09:58:19.647Z,51.46
2022-11-02T09:59:19.830Z,50.76
2022-11-02T10:00:20.016Z,51.87
2022-11-02T10:01:20.270Z,51.59
2022-11-02T10:02:20.398Z,51.79
2022-11-02T10:03:20.580Z,51.79
2022-11-02T10:04:20.721Z,52.01
2022-11-02T10:05:20.900Z,52.01
2022-11-02T10:06:21.101Z,52.32
2022-11-02T10:07:21.270Z,52.94
2022-11-02T10:08:21.426Z,52.94
2022-11-02T10:09:21.582Z,52.94
2022-11-02T10:10:21.742Z,52.74
2022-11-02T10:11:21.932Z,53.85
2022-11-02T10:12:22.081Z,52.97
2022-11-02T10:13:22.270Z,53.27
2022-11-02T10:14:22.442Z,52.87
2022-11-02T10:15:22.650Z,52.87
2022-11-02T10:16:22.791Z,53.97
2022-11-02T10:17:22.974Z,53.27
2022-11-02T10:18:23.172Z,53.00
2022-11-02T10:19:26.344Z,53.50
2022-11-02T10:20:23.531Z,53.80
2022-11-02T10:21:23.681Z,53.40
2022-11-02T10:22:23.868Z,53.80
2022-11-02T10:23:24.060Z,53.40
2022-11-02T10:24:24.253Z,53.70
2022-11-02T10:25:24.459Z,53.80
2022-11-02T10:26:24.613Z,54.30
2022-11-02T10:27:24.792Z,53.80
2022-11-02T10:28:25.081Z,53.90
2022-11-02T10:29:25.141Z,54.50
2022-11-02T10:30:25.358Z,54.00
2022-11-02T10:31:25.528Z,53.80
2022-11-02T10:32:25.663Z,53.00
2022-11-02T10:33:25.850Z,52.92
2022-11-02T10:34:26.029Z,53.63
2022-11-02T10:35:41.103Z,53.63
2022-11-02T10:36:27.402Z,53.63
2022-11-02T10:37:26.596Z,53.32
2022-11-02T10:38:26.723Z,53.90
2022-11-02T10:39:26.901Z,53.80
2022-11-02T10:40:27.101Z,54.10
2022-11-02T10:41:27.253Z,54.40
2022-11-02T10:42:27.415Z,54.40
2022-11-02T10:43:27.563Z,53.70
2022-11-02T10:44:27.723Z,53.50
2022-11-02T10:45:27.937Z,53.30
2022-11-02T10:46:28.069Z,53.40
2022-11-02T10:47:28.284Z,53.09
2022-11-02T10:48:28.437Z,53.50
2022-11-02T10:49:28.632Z,53.30
2022-11-02T10:50:28.815Z,52.69
2022-11-02T10:51:28.964Z,52.69
2022-11-02T10:52:29.192Z,53.09
2022-11-02T10:53:41.180Z,52.49
2022-11-02T10:54:34.252Z,52.59
2022-11-02T10:55:29.664Z,52.89
2022-11-02T10:56:29.836Z,53.20
2022-11-02T10:57:30.021Z,53.00
2022-11-02T10:58:30.222Z,53.07
2022-11-02T10:59:30.369Z,53.07
2022-11-02T11:00:30.634Z,53.27
2022-11-02T11:01:30.780Z,52.37
2022-11-02T11:02:30.883Z,51.66
2022-11-02T11:03:31.087Z,51.44
2022-11-02T11:04:31.224Z,51.74
2022-11-02T11:05:31.428Z,51.34
2022-11-02T11:06:31.575Z,51.31
2022-11-02T11:07:31.748Z,51.01
2022-11-02T11:08:31.893Z,51.42
2022-11-02T11:09:32.100Z,50.79
2022-11-02T11:10:32.246Z,51.29
2022-11-02T11:11:32.436Z,50.68
2022-11-02T11:12:32.614Z,50.76
2022-11-02T11:15:49.373Z,49.96
2022-11-02T11:16:34.285Z,49.66
2022-11-02T11:19:38.439Z,50.13
2022-11-02T11:20:33.969Z,49.84
2022-11-02T11:21:34.163Z,49.84
2022-11-02T11:22:34.305Z,49.51
2022-11-02T11:23:34.504Z,49.04
2022-11-02T11:24:34.738Z,49.54
2022-11-02T11:25:34.855Z,50.54
2022-11-02T11:26:35.026Z,49.74
2022-11-02T11:27:35.206Z,50.13
2022-11-02T11:28:35.455Z,49.74
2022-11-02T11:29:35.589Z,50.44
2022-11-02T11:31:36.936Z,50.24
2022-11-02T11:32:36.127Z,50.13
2022-11-02T11:33:36.306Z,50.13
2022-11-02T11:34:36.486Z,48.93
2022-11-02T11:35:36.676Z,49.54
2022-11-02T11:36:36.841Z,49.63
2022-11-02T11:37:36.984Z,49.43
2022-11-02T11:38:37.135Z,49.16
2022-11-02T11:39:37.329Z,49.26
2022-11-02T11:40:37.511Z,48.96
2022-11-02T11:41:37.698Z,49.66
2022-11-02T11:42:37.877Z,49.66
2022-11-02T11:43:38.057Z,50.06
2022-11-02T11:44:38.250Z,49.86
2022-11-02T11:45:38.446Z,49.86
2022-11-02T11:46:38.590Z,49.46
2022-11-02T11:47:38.779Z,49.36
2022-11-02T11:48:38.965Z,49.43
2022-11-02T11:50:03.399Z,49.74
2022-11-02T11:50:40.347Z,49.23
2022-11-02T11:51:39.521Z,48.93
2022-11-02T11:52:39.687Z,49.63
2022-11-02T11:53:39.869Z,49.23
2022-11-02T11:54:40.048Z,48.83
2022-11-02T11:55:40.239Z,48.46
2022-11-02T11:56:40.407Z,48.46
2022-11-02T11:57:40.560Z,48.55
2022-11-02T11:58:40.727Z,49.05
2022-11-02T11:59:40.908Z,49.16
2022-11-02T12:00:41.185Z,49.05
2022-11-02T12:01:41.479Z,49.66
2022-11-02T12:02:44.647Z,49.16
2022-11-02T12:03:41.689Z,49.36
2022-11-02T12:04:41.868Z,48.35
2022-11-02T12:05:41.947Z,47.85
2022-11-02T12:06:42.118Z,49.16
2022-11-02T12:07:42.322Z,48.96
2022-11-02T12:08:42.491Z,49.05
2022-11-02T12:09:42.688Z,49.36
2022-11-02T12:10:42.869Z,48.86
2022-11-02T12:11:43.039Z,48.78
2022-11-02T12:12:43.223Z,49.28
2022-11-02T12:13:43.408Z,48.08
2022-11-02T12:14:43.604Z,48.58
2022-11-02T12:15:43.750Z,48.38
2022-11-02T12:16:43.979Z,47.70
2022-11-02T12:17:44.121Z,47.60
2022-11-02T12:18:44.368Z,48.10
2022-11-02T12:19:44.512Z,47.30
2022-11-02T12:20:44.659Z,47.12
2022-11-02T12:21:44.809Z,46.51
2022-11-02T12:22:45.042Z,46.61
2022-11-02T12:23:45.336Z,46.22
2022-11-02T12:24:45.372Z,45.94
2022-11-02T12:25:45.522Z,46.54
2022-11-02T12:26:45.714Z,46.34
2022-11-02T12:27:45.902Z,46.14
2022-11-02T12:28:46.079Z,46.03
2022-11-02T12:29:46.229Z,46.14
2022-11-02T12:30:46.402Z,46.03
2022-11-02T12:31:46.618Z,46.23
2022-11-02T12:32:46.779Z,45.43
2022-11-02T12:33:46.920Z,46.14
2022-11-02T12:34:57.703Z,45.43
2022-11-02T12:35:48.283Z,45.63
2022-11-02T12:37:26.143Z,45.23
2022-11-02T12:37:48.646Z,45.83
2022-11-02T12:38:47.807Z,46.03
2022-11-02T12:39:47.999Z,45.43
2022-11-02T12:40:48.132Z,45.94
2022-11-02T12:41:48.321Z,46.14
2022-11-02T12:42:48.499Z,45.83
2022-11-02T12:43:48.685Z,45.33
2022-11-02T12:44:48.880Z,45.65
2022-11-02T12:45:49.052Z,45.45
2022-11-02T12:46:49.515Z,46.26
2022-11-02T12:47:49.383Z,46.46
2022-11-02T12:48:49.572Z,46.06
2022-11-02T12:49:49.771Z,45.86
2022-11-02T12:50:49.945Z,45.65
2022-11-02T12:51:50.131Z,46.06
2022-11-02T12:52:50.319Z,46.56
2022-11-02T12:53:50.515Z,45.75
2022-11-02T12:54:50.672Z,45.45
2022-11-02T12:55:50.830Z,45.55
2022-11-02T12:56:51.012Z,46.15
2022-11-02T12:57:51.199Z,45.83
2022-11-02T12:58:51.382Z,46.03
2022-11-02T12:59:51.591Z,45.63